Aérodrome :
LOGIN :

S'inscrire | Disclaimer

   EN    FR    IT 

 










Légende :    VFR   VFR Marginal   IFR   IFR Intensif   IFR Très Intensif
Visi : 
Plafond : 
>= 8 km
>= 3000ft
5 à 8 km
1000 à 3000 ft
1500m à 5 km
500 à 1000 ft
800 à 1500m
200 à 500 ft
< 800m
< 200 ft
Symboles :   Orages  Brouillard  Fortes neiges  Fortes précipitations  Vent > 20 kt
SIGMETs :   Divers  Orages  Givrage  Turbulence  Onde Orograph.  Cendres Volcan.






- Altitude de l'aérodrome : 659 ft
- Code IATA : LYN


LFLY - Lyon Bron

DERNIER METAR :
  • 101630Z AUTO 21022G43KT 180V270 9999 +TSRA FEW009/// SCT047/// BKN064/// ///CB 26/18 Q1014 TEMPO 3500 TSRA

METARs EXPIRÉS :
  • 101600Z AUTO 05007KT 340V100 9999 TS ///CB 31/16 Q1014 TEMPO VRB20G40KT 3500 TSRA
  • 101530Z AUTO VRB05KT 9999 VCTS FEW023/// SCT068/// ///CB 28/18 Q1014 TEMPO VRB20G40KT 3500 TSRA
  • 101500Z AUTO 35008KT 310V030 9999 TS ///CB 31/15 Q1014 TEMPO VRB20G40KT 1500 TSRAGR
  • 101430Z AUTO 36008KT 320V030 9999 VCTS ///CB 31/15 Q1014 TEMPO VRB20G40KT 1500 TSRAGR

TAF TAF LFLY
Valide du 10 à 12h jusqu'au 11 à 12h UTC


101100Z 1012/1112 36005KT CAVOK
BECMG 1012/1014 SCT070CB BKN090
TEMPO 1014/1021 VRB20G40KT 3500 TSRA BKN060CB
PROB30
TEMPO 1014/1017 1500 TSRAGR
FM102100 VRB02KT 9999 BKN040
PROB30
TEMPO 1021/1024 -SHRA BKN025
BECMG 1100/1102 34006KT
BECMG 1103/1106 CAVOK
BECMG 1110/1112 36012KT
ATIS : +33 4 72 15 87 96



MET'MAP, la Météo Aéronautique d'un coup d'oeil ! - Copyright ORBIFLY Décembre 2007 - Disclaimer

ORBIFLY MET'MAP TEAM :

Programmation & Développement : Alexandra Zaïnal
Sur une idée originale de : Baudouin d'Aumeries
Assistance à la programmation : Marc-Olivier Méhu
Soutien technique & logistique : Manuel Goepfert

Contact : metmap@orbifly.com




SOURCES & CREDITS :

   NOAA